Time;durP1;ratioP1;P1;durP2;ratioP2;P2;SDS_P1;SDS_P2;PMS_P1;PMS_P2;Temp;Humidity;BMP_temperature;BMP_pressure;BME280_temperature;BME280_humidity;BME280_pressure;Samples;Min_cycle;Max_cycle;Signal;HPM_P1;HPM_P2
2023/03/16 00:00:46;;;;;;;4.85;4.40;;;;;;;1.54;100.00;98959.34;4133380;28;20300;-48
2023/03/16 00:02:47;;;;;;;5.95;5.45;;;;;;;1.51;100.00;98962.44;4118414;28;20253;-48
2023/03/16 00:04:50;;;;;;;6.82;6.22;;;;;;;1.45;100.00;98955.06;4122478;28;20249;-48
2023/03/16 00:06:52;;;;;;;6.18;5.68;;;;;;;1.40;100.00;98964.72;4134592;28;20294;-49
2023/03/16 00:08:57;;;;;;;5.22;4.82;;;;;;;1.37;100.00;98957.84;4118591;28;20209;-48
2023/03/16 00:11:01;;;;;;;4.93;4.53;;;;;;;1.37;100.00;98965.91;4118831;28;20250;-48
2023/03/16 00:13:03;;;;;;;6.20;5.55;;;;;;;1.35;100.00;98954.47;4120237;28;20313;-48
2023/03/16 00:15:05;;;;;;;4.95;4.55;;;;;;;1.34;100.00;98963.56;4115978;28;20250;-48
2023/03/16 00:17:07;;;;;;;7.75;5.40;;;;;;;1.37;100.00;98960.53;4120077;28;20269;-48
2023/03/16 00:19:09;;;;;;;6.10;5.60;;;;;;;1.37;100.00;98959.69;4136148;28;20245;-48
2023/03/16 00:21:12;;;;;;;9.73;6.97;;;;;;;1.32;100.00;98964.78;4105193;28;20627;-48
2023/03/16 00:23:14;;;;;;;6.50;5.90;;;;;;;1.31;100.00;98971.19;4116883;28;20724;-48
2023/03/16 00:25:16;;;;;;;7.25;6.65;;;;;;;1.31;100.00;98966.66;4116477;28;20306;-49
2023/03/16 00:27:18;;;;;;;6.90;5.85;;;;;;;1.31;100.00;98972.03;4120342;28;20567;-50
2023/03/16 00:29:21;;;;;;;7.00;6.40;;;;;;;1.38;100.00;98967.59;4125424;28;20699;-48
2023/03/16 00:31:23;;;;;;;8.45;5.85;;;;;;;1.32;100.00;98968.31;4121146;28;20237;-48
2023/03/16 00:33:26;;;;;;;6.47;5.93;;;;;;;1.30;100.00;98964.13;4120181;28;20603;-48
2023/03/16 00:35:27;;;;;;;5.65;5.25;;;;;;;1.21;100.00;98968.72;4118737;28;21920;-48
2023/03/16 00:37:31;;;;;;;6.85;5.72;;;;;;;1.21;100.00;98971.44;4122433;28;20297;-48
2023/03/16 00:39:34;;;;;;;7.97;6.63;;;;;;;1.20;100.00;98977.84;4118841;28;20675;-48
2023/03/16 00:41:37;;;;;;;8.70;7.43;;;;;;;1.20;100.00;98966.25;4122232;28;20221;-48
2023/03/16 00:43:39;;;;;;;8.00;7.28;;;;;;;1.15;100.00;98972.13;4116272;28;20323;-48
2023/03/16 00:45:43;;;;;;;11.50;8.70;;;;;;;1.17;100.00;98962.03;4120160;28;20687;-48
2023/03/16 00:47:45;;;;;;;7.30;6.60;;;;;;;1.12;100.00;98961.75;4103120;28;20471;-48
2023/03/16 00:49:47;;;;;;;8.30;7.53;;;;;;;1.07;100.00;98969.50;4117609;28;20241;-49
2023/03/16 00:51:48;;;;;;;8.48;7.05;;;;;;;1.11;100.00;98954.69;4116791;28;20299;-49
2023/03/16 00:53:50;;;;;;;8.05;7.35;;;;;;;1.08;100.00;98948.81;4135970;28;20221;-50
2023/03/16 00:55:52;;;;;;;8.65;7.05;;;;;;;1.03;100.00;98957.44;4133858;28;20296;-48
2023/03/16 00:57:54;;;;;;;7.82;7.13;;;;;;;1.01;100.00;98945.97;4123578;28;20575;-48
2023/03/16 00:59:55;;;;;;;6.45;5.78;;;;;;;1.01;100.00;98937.91;4125651;28;20732;-48
2023/03/16 01:01:57;;;;;;;6.80;6.07;;;;;;;1.06;100.00;98935.50;4102770;28;20941;-47
2023/03/16 01:04:00;;;;;;;9.43;6.28;;;;;;;0.96;100.00;98940.31;4121686;28;20959;-48
2023/03/16 01:06:09;;;;;;;7.65;6.90;;;;;;;1.02;100.00;98942.25;4124488;28;20215;-48
2023/03/16 01:08:10;;;;;;;6.88;6.28;;;;;;;1.00;100.00;98941.63;4133953;28;20304;-48
2023/03/16 01:10:14;;;;;;;7.55;6.95;;;;;;;1.02;100.00;98950.34;4118237;28;20912;-48
2023/03/16 01:12:17;;;;;;;8.40;7.47;;;;;;;1.05;100.00;98955.38;4118514;28;20732;-49
2023/03/16 01:14:21;;;;;;;7.15;6.55;;;;;;;0.96;100.00;98961.88;4118072;28;20899;-48
2023/03/16 01:16:22;;;;;;;8.02;7.20;;;;;;;0.93;100.00;98956.81;4135184;28;20205;-48
2023/03/16 01:18:25;;;;;;;7.57;6.00;;;;;;;0.94;100.00;98958.50;4104415;28;20207;-48
2023/03/16 01:20:26;;;;;;;6.47;5.80;;;;;;;0.88;100.00;98948.44;4103773;28;20258;-48
2023/03/16 01:22:28;;;;;;;6.32;5.80;;;;;;;0.83;100.00;98940.06;4117887;28;20280;-48
2023/03/16 01:24:30;;;;;;;5.70;5.30;;;;;;;0.82;100.00;98949.13;4118351;28;20402;-48
2023/03/16 01:26:32;;;;;;;6.57;6.05;;;;;;;0.87;100.00;98946.75;4124271;28;20691;-47
2023/03/16 01:28:34;;;;;;;6.32;5.78;;;;;;;0.88;100.00;98947.59;4126814;28;20676;-48
2023/03/16 01:30:36;;;;;;;6.13;5.63;;;;;;;0.86;100.00;98939.69;4133428;28;20214;-48
2023/03/16 01:32:38;;;;;;;7.10;6.55;;;;;;;0.82;100.00;98943.75;4123257;28;20230;-47
2023/03/16 01:34:40;;;;;;;6.00;5.50;;;;;;;0.81;100.00;98944.78;4119767;28;20208;-48
2023/03/16 01:36:43;;;;;;;5.55;4.97;;;;;;;0.81;100.00;98947.47;4119379;28;20284;-48
2023/03/16 01:38:45;;;;;;;6.65;6.05;;;;;;;0.89;100.00;98939.31;4110167;28;20250;-49
2023/03/16 01:40:50;;;;;;;6.15;5.65;;;;;;;0.89;100.00;98936.63;4134709;28;20630;-48
2023/03/16 01:43:00;;;;;;;7.10;6.53;;;;;;;0.80;100.00;98929.63;4118589;28;20265;-47
2023/03/16 01:45:04;;;;;;;14.32;6.25;;;;;;;0.78;100.00;98931.69;4117295;28;20218;-48
2023/03/16 01:47:06;;;;;;;6.90;6.30;;;;;;;0.89;100.00;98917.78;4120630;28;20206;-47
2023/03/16 01:49:17;;;;;;;6.50;5.90;;;;;;;0.88;100.00;98916.09;4119616;28;20654;-48
2023/03/16 01:51:28;;;;;;;7.50;6.60;;;;;;;0.86;100.00;98911.91;4116162;28;20307;-47
2023/03/16 01:53:32;;;;;;;7.15;6.55;;;;;;;0.92;100.00;98917.44;4121080;28;20553;-47
2023/03/16 01:55:34;;;;;;;6.63;6.03;;;;;;;0.94;100.00;98906.50;4121213;28;20293;-49
2023/03/16 01:57:41;;;;;;;6.18;5.68;;;;;;;0.82;100.00;98908.75;4136076;28;20297;-47
2023/03/16 01:59:48;;;;;;;9.82;5.97;;;;;;;0.77;100.00;98913.00;4103390;28;21004;-47
2023/03/16 02:01:50;;;;;;;5.18;4.78;;;;;;;0.69;100.00;98919.25;4118944;28;20297;-48
2023/03/16 02:03:56;;;;;;;9.35;5.78;;;;;;;0.64;100.00;98916.28;4136631;28;20639;-48
2023/03/16 02:06:02;;;;;;;5.72;4.32;;;;;;;0.62;100.00;98915.59;4120771;28;20218;-47
2023/03/16 02:08:04;;;;;;;5.32;4.93;;;;;;;0.62;100.00;98915.59;4122842;28;20239;-48
2023/03/16 02:10:07;;;;;;;7.07;4.57;;;;;;;0.71;100.00;98897.56;4136045;28;20793;-48
2023/03/16 02:12:16;;;;;;;6.00;5.50;;;;;;;0.74;100.00;98892.66;4136953;28;20714;-47
2023/03/16 02:14:18;;;;;;;5.13;4.72;;;;;;;0.69;100.00;98889.66;4107209;28;20332;-47
2023/03/16 02:16:21;;;;;;;5.93;5.43;;;;;;;0.64;100.00;98892.06;4123076;28;20237;-48
2023/03/16 02:18:23;;;;;;;5.20;4.72;;;;;;;0.58;100.00;98898.16;4121118;28;20603;-48
2023/03/16 02:20:32;;;;;;;7.13;6.53;;;;;;;0.56;100.00;98886.72;4122936;28;20727;-48
2023/03/16 02:22:36;;;;;;;6.35;5.85;;;;;;;0.59;100.00;98888.22;4120430;28;20268;-48
2023/03/16 02:24:38;;;;;;;5.80;5.30;;;;;;;0.56;100.00;98884.00;4120198;28;20256;-47
2023/03/16 02:26:54;;;;;;;5.13;4.72;;;;;;;0.54;100.00;98886.06;4122166;28;20245;-48
2023/03/16 02:29:04;;;;;;;4.38;4.03;;;;;;;0.53;100.00;98876.31;4136118;28;20247;-47
2023/03/16 02:31:06;;;;;;;5.82;5.00;;;;;;;0.52;100.00;98880.03;4135881;28;20284;-48
2023/03/16 02:33:08;;;;;;;6.20;5.68;;;;;;;0.57;100.00;98857.94;4128019;28;20657;-50
2023/03/16 02:35:11;;;;;;;5.82;5.43;;;;;;;0.49;100.00;98869.59;4111895;28;20349;-48
2023/03/16 02:37:13;;;;;;;4.95;4.47;;;;;;;0.48;100.00;98873.31;4136072;28;20703;-48
2023/03/16 02:39:15;;;;;;;5.63;5.05;;;;;;;0.56;100.00;98867.03;4129463;28;20564;-48
2023/03/16 02:41:19;;;;;;;5.32;4.82;;;;;;;0.50;100.00;98860.53;4119874;28;20832;-48
2023/03/16 02:43:24;;;;;;;4.63;4.22;;;;;;;0.53;100.00;98854.78;4137519;28;20856;-48
2023/03/16 02:45:28;;;;;;;4.78;4.28;;;;;;;0.59;100.00;98856.75;4103816;28;20222;-48
2023/03/16 02:47:36;;;;;;;4.75;4.30;;;;;;;0.48;100.00;98854.47;4136444;28;20226;-48
2023/03/16 02:49:41;;;;;;;5.60;5.10;;;;;;;0.47;100.00;98842.03;4123224;28;20297;-48
2023/03/16 02:51:44;;;;;;;5.22;4.82;;;;;;;0.40;100.00;98835.69;4127860;28;20217;-50
2023/03/16 02:53:46;;;;;;;6.65;5.65;;;;;;;0.39;100.00;98850.16;4136562;28;20323;-48
2023/03/16 02:55:48;;;;;;;5.22;4.80;;;;;;;0.38;100.00;98848.50;4135473;28;20293;-48
2023/03/16 02:57:51;;;;;;;5.45;5.05;;;;;;;0.38;100.00;98840.41;4126338;28;20210;-48
2023/03/16 02:59:52;;;;;;;5.20;4.80;;;;;;;0.38;100.00;98848.50;4126527;28;20296;-47
2023/03/16 03:01:54;;;;;;;5.28;4.82;;;;;;;0.41;100.00;98845.44;4124926;28;20206;-47
2023/03/16 03:03:56;;;;;;;7.20;6.53;;;;;;;0.42;100.00;98838.22;4122102;28;20229;-48
2023/03/16 03:05:57;;;;;;;7.50;6.80;;;;;;;0.49;100.00;98839.97;4121218;28;20230;-48
2023/03/16 03:08:00;;;;;;;8.15;7.53;;;;;;;0.44;100.00;98837.03;4125763;28;20213;-48
2023/03/16 03:10:04;;;;;;;6.72;6.13;;;;;;;0.46;100.00;98834.97;4128191;28;20347;-48
2023/03/16 03:12:10;;;;;;;7.70;6.93;;;;;;;0.40;100.00;98830.31;4125659;28;20289;-47
2023/03/16 03:14:15;;;;;;;8.07;7.38;;;;;;;0.44;100.00;98839.72;4106982;28;20831;-49
2023/03/16 03:16:17;;;;;;;7.05;6.45;;;;;;;0.44;100.00;98833.47;4138365;28;20217;-47
2023/03/16 03:18:19;;;;;;;5.97;5.47;;;;;;;0.39;100.00;98834.00;4125119;28;20297;-48
2023/03/16 03:20:20;;;;;;;6.25;5.60;;;;;;;0.35;100.00;98838.06;4124181;28;20209;-49
2023/03/16 03:22:22;;;;;;;6.25;5.65;;;;;;;0.35;100.00;98832.69;4136662;28;20261;-47
2023/03/16 03:24:26;;;;;;;5.55;5.05;;;;;;;0.40;100.00;98830.31;4118832;28;20207;-48
2023/03/16 03:26:28;;;;;;;6.70;6.20;;;;;;;0.46;100.00;98834.97;4127156;28;20301;-48
2023/03/16 03:28:30;;;;;;;7.80;7.07;;;;;;;0.44;100.00;98826.25;4120881;28;20745;-48
2023/03/16 03:30:32;;;;;;;7.35;6.72;;;;;;;0.43;100.00;98821.88;4126521;28;20304;-48
2023/03/16 03:32:33;;;;;;;8.15;7.35;;;;;;;0.43;100.00;98829.97;4134889;28;20382;-48
2023/03/16 03:34:36;;;;;;;8.63;7.85;;;;;;;0.42;100.00;98822.88;4132987;28;20328;-48
2023/03/16 03:36:38;;;;;;;8.93;8.02;;;;;;;0.38;100.00;98818.88;4118995;28;20237;-48
2023/03/16 03:38:40;;;;;;;8.95;8.10;;;;;;;0.31;100.00;98819.78;4105594;28;20242;-48
2023/03/16 03:40:41;;;;;;;8.85;8.02;;;;;;;0.24;100.00;98818.81;4119352;28;20566;-49
2023/03/16 03:42:43;;;;;;;7.38;6.68;;;;;;;0.23;100.00;98815.31;4121818;28;20728;-48
2023/03/16 03:44:45;;;;;;;15.80;7.57;;;;;;;0.22;100.00;98823.53;4118337;28;20223;-48
2023/03/16 03:46:47;;;;;;;7.78;7.07;;;;;;;0.24;100.00;98825.03;4108353;28;20744;-48
2023/03/16 03:48:49;;;;;;;6.37;5.87;;;;;;;0.23;100.00;98818.00;4119686;28;20784;-49
2023/03/16 03:50:51;;;;;;;7.63;5.05;;;;;;;0.26;100.00;98812.25;4135714;28;20365;-48
2023/03/16 03:52:53;;;;;;;7.55;6.32;;;;;;;0.30;100.00;98815.41;4119313;28;20341;-49
2023/03/16 03:54:55;;;;;;;6.37;5.87;;;;;;;0.29;100.00;98822.63;4135685;28;20216;-47
2023/03/16 03:56:56;;;;;;;9.90;5.20;;;;;;;0.29;100.00;98811.06;4120318;28;20743;-48
2023/03/16 03:58:58;;;;;;;8.88;5.50;;;;;;;0.23;100.00;98809.06;4122444;28;20310;-48
2023/03/16 04:01:00;;;;;;;6.28;5.70;;;;;;;0.24;100.00;98811.59;4116037;28;20206;-47
2023/03/16 04:03:02;;;;;;;6.17;5.67;;;;;;;0.23;100.00;98811.75;4100892;28;20271;-47
2023/03/16 04:05:04;;;;;;;5.95;5.50;;;;;;;0.21;100.00;98814.63;4120373;28;20308;-48
2023/03/16 04:07:06;;;;;;;5.47;5.07;;;;;;;0.23;100.00;98806.38;4133077;28;20628;-49
2023/03/16 04:09:08;;;;;;;4.85;4.55;;;;;;;0.18;100.00;98815.00;4120223;28;20265;-49
2023/03/16 04:11:10;;;;;;;5.38;4.97;;;;;;;0.15;100.00;98818.00;4135845;28;20718;-48
2023/03/16 04:13:12;;;;;;;5.63;5.13;;;;;;;0.13;100.00;98816.50;4136010;28;20723;-48
2023/03/16 04:15:14;;;;;;;7.05;5.07;;;;;;;0.10;100.00;98812.34;4138421;28;20216;-50
2023/03/16 04:17:16;;;;;;;5.07;4.68;;;;;;;0.09;100.00;98824.09;4135427;28;20205;-48
2023/03/16 04:19:17;;;;;;;6.65;6.05;;;;;;;0.15;100.00;98820.72;4135143;28;20300;-48
2023/03/16 04:21:20;;;;;;;6.72;6.13;;;;;;;0.15;100.00;98815.31;4107943;28;20294;-48
2023/03/16 04:23:23;;;;;;;5.80;5.40;;;;;;;0.13;100.00;98814.69;4117113;28;20312;-48
2023/03/16 04:25:26;;;;;;;6.65;6.05;;;;;;;0.16;100.00;98817.00;4118271;28;20233;-48
2023/03/16 04:27:28;;;;;;;6.88;6.05;;;;;;;0.17;100.00;98805.25;4124093;28;20340;-48
2023/03/16 04:29:30;;;;;;;7.77;7.17;;;;;;;0.19;100.00;98799.66;4119652;28;20657;-49
2023/03/16 04:31:32;;;;;;;7.40;6.90;;;;;;;0.23;100.00;98795.63;4117073;28;22202;-48
2023/03/16 04:33:35;;;;;;;8.27;6.82;;;;;;;0.20;100.00;98796.00;4124760;28;20326;-48
2023/03/16 04:35:36;;;;;;;8.30;5.25;;;;;;;0.17;100.00;98791.78;4133848;28;20292;-48
2023/03/16 04:37:38;;;;;;;6.05;5.55;;;;;;;0.15;100.00;98798.38;4123768;28;20225;-48
2023/03/16 04:39:40;;;;;;;7.28;6.68;;;;;;;0.14;100.00;98797.50;4125623;28;20646;-48
2023/03/16 04:41:42;;;;;;;6.45;5.72;;;;;;;0.10;100.00;98790.84;4132698;28;20659;-48
2023/03/16 04:43:44;;;;;;;6.63;6.10;;;;;;;0.12;100.00;98788.78;4124229;28;20238;-48
2023/03/16 04:45:46;;;;;;;6.57;6.13;;;;;;;0.18;100.00;98792.63;4130560;28;20232;-48
2023/03/16 04:47:48;;;;;;;6.05;5.55;;;;;;;0.13;100.00;98790.47;4116509;28;20220;-48
2023/03/16 04:49:50;;;;;;;7.60;6.88;;;;;;;0.09;100.00;98789.13;4116546;28;20441;-48
2023/03/16 04:51:52;;;;;;;7.23;6.73;;;;;;;0.09;100.00;98789.13;4120175;28;20213;-48
2023/03/16 04:53:53;;;;;;;7.03;6.43;;;;;;;0.07;100.00;98780.41;4121151;28;20385;-48
2023/03/16 04:55:55;;;;;;;6.13;5.63;;;;;;;0.07;100.00;98783.09;4126500;28;20297;-48
2023/03/16 04:57:57;;;;;;;5.40;5.00;;;;;;;0.07;100.00;98785.78;4119495;28;20293;-48
2023/03/16 04:59:59;;;;;;;7.00;6.32;;;;;;;0.10;100.00;98780.06;4120818;28;20212;-48
2023/03/16 05:02:00;;;;;;;5.88;5.38;;;;;;;0.11;100.00;98779.06;4120196;28;20217;-48
2023/03/16 05:04:02;;;;;;;5.60;5.15;;;;;;;0.10;100.00;98776.53;4121463;28;20265;-48
2023/03/16 05:06:04;;;;;;;5.80;5.22;;;;;;;0.10;100.00;98774.69;4138696;28;20260;-48
2023/03/16 05:08:06;;;;;;;5.32;4.93;;;;;;;0.07;100.00;98775.03;4122445;28;20207;-48
2023/03/16 05:10:09;;;;;;;5.65;5.28;;;;;;;0.09;100.00;98772.19;4102764;28;20253;-48
2023/03/16 05:12:11;;;;;;;5.78;5.32;;;;;;;0.11;100.00;98771.00;4117863;28;20261;-48
2023/03/16 05:14:13;;;;;;;6.38;5.72;;;;;;;0.10;100.00;98769.31;4118563;28;20260;-48
2023/03/16 05:16:15;;;;;;;5.88;5.38;;;;;;;0.06;100.00;98768.00;4121804;28;20203;-49
2023/03/16 05:18:17;;;;;;;5.78;5.28;;;;;;;0.03;100.00;98768.34;4120866;28;20252;-48
2023/03/16 05:20:20;;;;;;;6.03;5.53;;;;;;;0.02;100.00;98782.78;4119889;28;20269;-48
2023/03/16 05:22:22;;;;;;;5.50;5.10;;;;;;;-0.01;100.00;98772.41;4138067;28;20719;-48
2023/03/16 05:24:24;;;;;;;5.53;5.03;;;;;;;-0.02;100.00;98776.09;4101036;28;20621;-48
2023/03/16 05:26:26;;;;;;;6.63;6.07;;;;;;;-0.02;100.00;98775.25;4117354;28;20313;-48
2023/03/16 05:28:27;;;;;;;6.95;6.43;;;;;;;-0.05;100.00;98770.25;4132159;28;20991;-48
2023/03/16 05:30:30;;;;;;;7.25;6.55;;;;;;;-0.04;100.00;98777.31;4118499;28;20300;-48
2023/03/16 05:32:31;;;;;;;7.32;6.20;;;;;;;-0.05;100.00;98776.44;4112595;28;20483;-49
2023/03/16 05:34:33;;;;;;;6.43;5.93;;;;;;;-0.02;100.00;98773.41;4136765;28;20221;-49
2023/03/16 05:36:35;;;;;;;6.60;6.00;;;;;;;-0.03;100.00;98771.75;4121749;28;20201;-49
2023/03/16 05:38:44;;;;;;;6.75;6.18;;;;;;;-0.07;100.00;98778.47;4134869;28;20555;-48
2023/03/16 05:40:51;;;;;;;6.40;5.82;;;;;;;-0.06;100.00;98769.41;4131336;28;20392;-49
2023/03/16 05:42:54;;;;;;;5.78;5.28;;;;;;;-0.05;100.00;98781.00;4121171;28;20235;-49
2023/03/16 05:44:56;;;;;;;6.50;5.70;;;;;;;-0.04;100.00;98780.81;4120270;28;20217;-50
2023/03/16 05:46:58;;;;;;;6.37;5.77;;;;;;;-0.06;100.00;98780.16;4120029;28;20218;-50
2023/03/16 05:49:00;;;;;;;6.38;5.97;;;;;;;-0.07;100.00;98773.09;4119701;28;20202;-48
2023/03/16 05:51:04;;;;;;;6.20;5.65;;;;;;;-0.07;100.00;98775.78;4122022;28;20293;-50
2023/03/16 05:53:07;;;;;;;6.33;5.83;;;;;;;-0.06;100.00;98776.66;4123419;28;20309;-49
2023/03/16 05:55:10;;;;;;;5.97;5.57;;;;;;;-0.01;100.00;98783.16;4121733;28;20257;-50
2023/03/16 05:57:12;;;;;;;6.90;6.22;;;;;;;-0.02;100.00;98781.50;4105778;28;20302;-49
2023/03/16 05:59:19;;;;;;;6.65;5.80;;;;;;;-0.03;100.00;98779.81;4118957;28;20763;-49
2023/03/16 06:01:21;;;;;;;5.70;5.30;;;;;;;0.00;100.00;98774.06;4116023;28;20217;-50
2023/03/16 06:03:23;;;;;;;7.32;6.78;;;;;;;0.01;100.00;98774.94;4102228;28;20313;-50
2023/03/16 06:05:27;;;;;;;7.27;6.53;;;;;;;0.03;100.00;98779.13;4101897;28;20646;-50
2023/03/16 06:07:29;;;;;;;7.38;6.72;;;;;;;-0.02;100.00;98773.41;4117201;28;20706;-49
2023/03/16 06:09:31;;;;;;;6.22;5.72;;;;;;;-0.01;100.00;98767.03;4117210;28;20214;-49
2023/03/16 06:11:33;;;;;;;6.50;6.00;;;;;;;-0.01;100.00;98771.56;4104970;28;20222;-48
2023/03/16 06:13:41;;;;;;;6.90;5.93;;;;;;;-0.03;100.00;98763.69;4123955;28;20257;-48
2023/03/16 06:15:43;;;;;;;6.85;6.25;;;;;;;-0.03;100.00;98778.97;4122226;28;20232;-49
2023/03/16 06:17:44;;;;;;;8.32;7.50;;;;;;;-0.05;100.00;98775.63;4117646;28;20625;-50
2023/03/16 06:19:46;;;;;;;6.35;5.93;;;;;;;-0.03;100.00;98771.75;4118337;28;20332;-49
2023/03/16 06:21:48;;;;;;;6.38;5.78;;;;;;;0.03;100.00;98768.34;4116939;28;20207;-48
2023/03/16 06:23:50;;;;;;;7.15;6.57;;;;;;;0.04;100.00;98770.03;4117929;28;20261;-48
2023/03/16 06:25:55;;;;;;;6.53;6.03;;;;;;;0.07;100.00;98766.97;4136907;28;20229;-49
2023/03/16 06:27:56;;;;;;;6.80;6.27;;;;;;;0.14;100.00;98772.47;4123902;28;20206;-49
2023/03/16 06:29:58;;;;;;;5.65;5.25;;;;;;;0.23;100.00;98772.25;4104593;28;20717;-49
2023/03/16 06:32:00;;;;;;;5.50;5.10;;;;;;;0.19;100.00;98773.63;4125580;28;20965;-48
2023/03/16 06:34:02;;;;;;;7.00;6.40;;;;;;;0.20;100.00;98769.91;4137354;28;20268;-49
2023/03/16 06:36:05;;;;;;;6.75;6.10;;;;;;;0.29;100.00;98768.81;4121669;28;20253;-49
2023/03/16 06:38:07;;;;;;;7.00;6.50;;;;;;;0.33;100.00;98770.16;4121775;28;20214;-49
2023/03/16 06:40:09;;;;;;;6.95;6.45;;;;;;;0.42;100.00;98773.63;4122580;28;20719;-49
2023/03/16 06:42:12;;;;;;;8.50;7.80;;;;;;;0.60;100.00;98779.53;4126235;28;21275;-49
2023/03/16 06:44:13;;;;;;;12.13;9.43;;;;;;;0.80;100.00;98776.13;4136691;28;20758;-49
2023/03/16 06:46:16;;;;;;;8.68;7.97;;;;;;;0.94;100.00;98777.19;4122203;28;20226;-49
2023/03/16 06:48:17;;;;;;;10.43;9.55;;;;;;;1.58;100.00;98780.00;4119298;28;20768;-49
2023/03/16 06:50:19;;;;;;;10.45;9.50;;;;;;;2.46;100.00;98784.16;4117533;28;20214;-50
2023/03/16 06:52:21;;;;;;;10.20;9.35;;;;;;;2.96;100.00;98778.63;4117979;28;20601;-48
2023/03/16 06:54:23;;;;;;;10.30;9.50;;;;;;;3.37;100.00;98776.84;4126631;28;20253;-47
2023/03/16 06:56:26;;;;;;;8.82;8.15;;;;;;;3.69;100.00;98762.66;4120959;28;20723;-48
2023/03/16 06:58:28;;;;;;;10.45;9.55;;;;;;;4.29;100.00;98772.66;4110402;28;20516;-48
2023/03/16 07:00:32;;;;;;;8.13;7.53;;;;;;;3.68;100.00;98769.09;4123778;28;20237;-47
2023/03/16 07:02:34;;;;;;;8.43;7.70;;;;;;;4.10;100.00;98763.47;4110352;28;20698;-47
2023/03/16 07:04:36;;;;;;;7.90;7.18;;;;;;;4.66;100.00;98767.53;4121444;28;20254;-48
2023/03/16 07:06:38;;;;;;;8.07;7.28;;;;;;;5.13;100.00;98769.25;4135687;28;20252;-48
2023/03/16 07:08:41;;;;;;;8.27;7.57;;;;;;;5.16;100.00;98766.94;4127234;28;20269;-48
2023/03/16 07:10:43;;;;;;;10.80;7.45;;;;;;;4.71;100.00;98761.50;4121107;28;20203;-48
2023/03/16 07:12:45;;;;;;;8.32;7.55;;;;;;;4.30;100.00;98750.81;4122793;28;20292;-48
2023/03/16 07:14:52;;;;;;;7.13;6.63;;;;;;;4.98;100.00;98750.47;4122666;28;20637;-49
2023/03/16 07:17:10;;;;;;;7.15;6.55;;;;;;;5.10;99.12;98752.31;4119575;28;20206;-52
2023/03/16 07:19:39;;;;;;;7.22;6.63;;;;;;;5.04;99.54;98753.16;4108427;28;20217;-49
2023/03/16 07:21:41;;;;;;;7.10;6.50;;;;;;;4.69;100.00;98755.44;4119756;28;20213;-49
2023/03/16 07:23:43;;;;;;;7.82;6.28;;;;;;;6.08;98.17;98752.13;4119927;28;20340;-49
2023/03/16 07:25:45;;;;;;;7.03;6.43;;;;;;;5.67;96.92;98754.31;4136326;28;20233;-49
2023/03/16 07:27:47;;;;;;;8.93;6.93;;;;;;;5.05;96.83;98762.13;4124752;28;20210;-49
2023/03/16 07:29:59;;;;;;;7.03;6.35;;;;;;;5.71;98.49;98761.00;4126856;28;20547;-48
2023/03/16 07:32:04;;;;;;;13.50;8.85;;;;;;;6.44;95.72;98763.22;4133808;28;20259;-49
2023/03/16 07:34:05;;;;;;;7.65;6.78;;;;;;;6.54;95.41;98763.56;4133878;28;20206;-49
2023/03/16 07:36:09;;;;;;;8.02;7.32;;;;;;;7.01;90.67;98760.28;4125361;28;20237;-49
2023/03/16 07:38:11;;;;;;;6.28;5.78;;;;;;;7.28;89.41;98761.75;4127620;28;20568;-49
2023/03/16 07:40:17;;;;;;;7.75;5.82;;;;;;;7.59;88.27;98758.94;4124452;28;20241;-49
2023/03/16 07:42:19;;;;;;;6.55;5.95;;;;;;;8.04;86.74;98763.03;4125909;28;20911;-50
2023/03/16 07:44:22;;;;;;;5.45;4.95;;;;;;;8.51;84.70;98764.97;4124227;28;20256;-49
2023/03/16 07:46:25;;;;;;;7.53;5.50;;;;;;;8.22;83.99;98765.78;4105030;28;20250;-49
2023/03/16 07:48:27;;;;;;;5.88;5.40;;;;;;;8.14;86.26;98766.03;4126560;28;20217;-49
2023/03/16 07:50:42;;;;;;;6.07;5.57;;;;;;;8.51;85.19;98775.88;4137222;28;20240;-48
2023/03/16 07:52:51;;;;;;;5.50;5.10;;;;;;;8.50;84.96;98774.22;4120361;28;20261;-49
2023/03/16 07:54:54;;;;;;;5.35;4.95;;;;;;;8.53;80.59;98780.03;4117896;28;20206;-48
2023/03/16 07:56:56;;;;;;;5.63;5.22;;;;;;;8.01;82.69;98775.22;4137802;28;20820;-48
2023/03/16 07:58:58;;;;;;;5.90;5.40;;;;;;;8.02;83.11;98781.50;4120113;28;20298;-50
2023/03/16 08:01:00;;;;;;;5.88;5.18;;;;;;;7.67;84.64;98780.41;4122370;28;20775;-50
2023/03/16 08:03:02;;;;;;;6.13;5.65;;;;;;;8.16;85.33;98780.28;4136781;28;20228;-48
2023/03/16 08:05:04;;;;;;;5.88;5.38;;;;;;;8.52;82.35;98772.06;4120003;28;20242;-50
2023/03/16 08:07:13;;;;;;;7.63;5.30;;;;;;;8.79;82.29;98771.47;4121523;28;20229;-49
2023/03/16 08:09:15;;;;;;;5.13;4.72;;;;;;;9.08;81.09;98773.31;4119381;28;20719;-49
2023/03/16 08:11:22;;;;;;;5.65;5.25;;;;;;;9.01;81.09;98766.31;4110015;28;20246;-49
2023/03/16 08:13:30;;;;;;;6.85;5.65;;;;;;;9.51;80.43;98767.56;4124016;28;20693;-49
2023/03/16 08:15:37;;;;;;;6.25;5.65;;;;;;;9.63;79.43;98766.50;4118955;28;20301;-50
2023/03/16 08:17:40;;;;;;;5.03;4.63;;;;;;;9.57;81.29;98767.47;4120037;28;20217;-50
2023/03/16 08:19:42;;;;;;;5.00;4.60;;;;;;;9.16;80.59;98766.72;4124815;28;20257;-49
2023/03/16 08:21:44;;;;;;;5.75;5.25;;;;;;;9.19;79.53;98769.81;4129355;28;20308;-49
2023/03/16 08:24:01;;;;;;;6.03;5.53;;;;;;;8.75;80.58;98755.81;4131726;28;20288;-49
2023/03/16 08:26:07;;;;;;;5.45;5.05;;;;;;;9.24;80.24;98756.28;4121216;28;20416;-50
2023/03/16 08:28:11;;;;;;;6.38;5.78;;;;;;;9.76;80.57;98754.50;4116577;28;20258;-49
2023/03/16 08:30:15;;;;;;;5.63;4.93;;;;;;;9.31;81.15;98753.44;4106230;28;20294;-49
2023/03/16 08:32:17;;;;;;;5.15;4.85;;;;;;;10.14;76.92;98752.09;4118665;28;20649;-50
2023/03/16 08:34:18;;;;;;;4.28;3.97;;;;;;;9.94;76.64;98744.25;4133577;28;20210;-48
2023/03/16 08:36:27;;;;;;;5.40;5.00;;;;;;;10.11;76.54;98744.38;4136038;28;20633;-49
2023/03/16 08:38:40;;;;;;;4.93;3.92;;;;;;;10.26;75.01;98744.69;4119547;28;20619;-49
2023/03/16 08:41:07;;;;;;;5.25;4.40;;;;;;;10.11;76.66;98758.03;4119427;28;20215;-49
2023/03/16 08:43:31;;;;;;;4.22;3.92;;;;;;;9.30;81.22;98765.41;4134343;28;20288;-49
2023/03/16 08:45:55;;;;;;;4.45;4.05;;;;;;;9.63;80.62;98760.22;4132830;28;20209;-49
2023/03/16 08:48:13;;;;;;;4.78;4.28;;;;;;;9.58;79.10;98755.47;4119784;28;20212;-48
2023/03/16 08:50:36;;;;;;;4.40;4.05;;;;;;;10.01;78.19;98755.06;4118100;28;20618;-47
2023/03/16 08:53:01;;;;;;;4.20;3.83;;;;;;;9.98;77.41;98758.25;4125809;28;20714;-48
2023/03/16 08:55:34;;;;;;;3.63;3.20;;;;;;;10.55;77.39;98754.59;4133746;28;20300;-49
2023/03/16 08:57:51;;;;;;;3.40;3.10;;;;;;;10.39;75.66;98755.34;4118969;28;20579;-47
2023/03/16 09:00:13;;;;;;;4.45;3.40;;;;;;;10.40;76.51;98752.38;4124611;28;20202;-48
2023/03/16 09:02:41;;;;;;;3.55;3.30;;;;;;;10.03;75.85;98752.91;4107047;28;20234;-48
2023/03/16 09:04:56;;;;;;;3.58;3.28;;;;;;;11.09;75.31;98757.50;4103701;28;20637;-49
2023/03/16 09:06:58;;;;;;;3.45;3.15;;;;;;;10.82;73.20;98740.88;4126860;28;20229;-48
2023/03/16 09:09:12;;;;;;;5.65;2.53;;;;;;;10.33;73.35;98746.22;4130993;28;20775;-48
2023/03/16 09:11:16;;;;;;;3.03;2.53;;;;;;;11.40;70.85;98744.09;4109383;28;20249;-48
2023/03/16 09:13:18;;;;;;;2.55;2.35;;;;;;;12.13;69.26;98741.06;4132281;28;20226;-49
2023/03/16 09:15:20;;;;;;;3.45;2.97;;;;;;;11.18;69.19;98731.38;4120657;28;20617;-50
2023/03/16 09:17:22;;;;;;;2.75;2.53;;;;;;;11.57;72.06;98736.66;4129280;28;20201;-48
2023/03/16 09:19:33;;;;;;;2.85;2.65;;;;;;;12.57;67.12;98734.50;4120706;28;20229;-48
2023/03/16 09:21:52;;;;;;;3.03;2.55;;;;;;;12.61;66.41;98733.72;4121889;28;20199;-48
2023/03/16 09:24:06;;;;;;;2.55;2.35;;;;;;;12.72;65.76;98730.00;4116544;28;20285;-49
2023/03/16 09:26:28;;;;;;;2.63;2.28;;;;;;;12.19;66.30;98724.44;4116695;28;20292;-48
2023/03/16 09:28:41;;;;;;;2.88;2.67;;;;;;;12.59;65.87;98721.31;4117162;28;20210;-49
2023/03/16 09:31:02;;;;;;;3.75;2.55;;;;;;;12.91;65.11;98728.53;4125860;28;20198;-50
2023/03/16 09:33:04;;;;;;;2.55;2.35;;;;;;;12.19;64.79;98721.69;4132739;28;20225;-49
2023/03/16 09:35:07;;;;;;;2.58;1.85;;;;;;;12.48;67.06;98723.13;4119473;28;20218;-48
2023/03/16 09:37:09;;;;;;;7.32;2.10;;;;;;;12.14;67.17;98724.38;4104097;28;20674;-48
2023/03/16 09:39:12;;;;;;;3.25;2.55;;;;;;;11.56;65.49;98724.03;4124900;28;20280;-48
2023/03/16 09:41:38;;;;;;;2.20;2.00;;;;;;;11.12;66.45;98713.19;4105297;28;20221;-48
2023/03/16 09:44:17;;;;;;;3.53;1.92;;;;;;;12.16;66.56;98715.88;4119264;28;20763;-48
2023/03/16 09:46:31;;;;;;;1.67;1.55;;;;;;;12.97;65.89;98721.22;4129659;28;20276;-47